03:02
Airports
History
Links
Donate
Help keep this website running!
PayPal
Bitcoin
This page is community maintained. The information is intended for PC simulator navigation or reference.
Always use approved charts for navigation.
KGWV
Glendale Fokker Field
Glendale Fokker Field (KGWV)
Glen Dale, West Virginia, United States (26038)
4
Lat/Lng:39° 56' 55.27" N / 80° 45' 34.31" W
39.948685 / -80.75953
Elevation:648'ft / 198mMSL
ID / ICAO:KGWV
Runways:1
Longest:01-19
Grass 789m / 2,587ft
Nearby Weather02:53 GMT 2017-09-21
Nearby weather at KHLG, Wheeling Ohio Co located 16.7 nautical miles from KGWV
Altimeter: 30.06
Visibility: 9.0 statute miles
Wind: 3 knots (from 190°)
Temp: 19°c / 66°f
Humidity: 88.2%

METAR: KHLG 210253Z AUTO 19003KT 9SM CLR 19/17 A3006 RMK AO2 SLP174 T01940172 51011

(Powered by phpweather)
Nearby VORs <50NM
Nearby NDBs
Runway 01 / 19
Dimensions:788.6 x 30.5m 2587' x 100'ft
Surface:Grass
Runway 01 [A]Runway 19 [B]
Heading:003°TH 183°TH
Lat:
Lng:
39° 56' 42.45"N
80° 45' 35.18"W
39° 57' 8.09"N
80° 45' 33.43"W
User Notes and Comments
39° 56' 55.27" N / 80° 45' 34.31" W
Distance To
Airport ID:
Nearby Airports
(U) Marshall County 4.9 NM
KMPG SSE 164°
4 Twin Ash 15.5 NM
OI88 NW 306°
(C) Wheeling Ohio Co 16.7 NM
KHLG ( WX ) NNE 20°
4 P W Johnson Memorial 19.1 NM
75D SSW 196°
(R) Uphill 20.5 NM
PS67 ENE 57°
(U) Monroe County 21.6 NM
4G5 WSW 237°
(U) Barnesville-bradfield 23.2 NM
6G5 W 279°
VFR Chart
Flight Planning at SkyVector.com